Weather History for KAQO - February, 2013

Change the Weather History Date:

Thursday, February 28, 2013

  Actual Average (KBMQ) Record (KBMQ)
Temperature  
Mean Temperature 46 °F -  
Max Temperature 60 °F 61 °F 82 °F (2014)
Min Temperature 32 °F 41 °F 26 °F (2015)
Degree Days  
Heating Degree Days 19    
Moisture  
Dew Point 24 °F    
Average Humidity 49    
Maximum Humidity 81    
Minimum Humidity 20    
Precipitation  
Precipitation 0.00 in - - ()
Sea Level Pressure  
Sea Level Pressure 30.30 in    
Wind  
Wind Speed 4 mph (North)    
Max Wind Speed 16 mph    
Max Gust Speed 18 mph    
Visibility 10 miles    
Events      
Averages and records for this station are not official NWS values.
T = Trace of Precipitation, MM = Missing Value Source: NWS Daily Summary

Daily Weather History Graph

Daily Weather History Graph

Search for Another Location

Airport or City:

Trip Planner

Search our weather history database for the weather conditions in past years. The results will help you decide how hot, cold, wet, or windy it might be!

Date:

Astronomy

Feb. 28, 2013 Rise Set
Actual Time 7:01 AM CST 6:32 PM CST
Civil Twilight 6:37 AM CST 6:56 PM CST
Nautical Twilight 6:09 AM CST 7:24 PM CST
Astronomical Twilight 5:41 AM CST 7:52 PM CST
Moon 9:43 PM CST (2/28) 8:28 AM CST (2/28)
Length of Visible Light 12h 19m
Length of Day
11h 30m
Waning Gibbous, 90% of the Moon is Illuminated
Feb 28
Waning Gibbous
Mar 4
Last Quarter
Mar 11
New
Mar 19
First Quarter
Mar 27
Full

Hourly Weather History & Observations

Time (CST) Temp. Windchill Dew Point Humidity Pressure Visibility Wind Dir Wind Speed Gust Speed Precip Events Conditions
12:15 AM 39.2 °F 34.2 °F 21.2 °F 49% 30.29 in 10.0 mi North 6.9 mph - N/A   Clear
12:35 AM 39.2 °F 34.2 °F 21.2 °F 49% 30.28 in 10.0 mi North 6.9 mph - N/A   Clear
12:55 AM 37.4 °F 32.1 °F 21.2 °F 52% 30.28 in 10.0 mi North 6.9 mph - N/A   Clear
1:15 AM 37.4 °F - 23.0 °F 56% 30.29 in 10.0 mi Calm Calm - N/A   Clear
1:35 AM 35.6 °F - 24.8 °F 65% 30.29 in 10.0 mi Calm Calm - N/A   Clear
1:55 AM 37.4 °F - 24.8 °F 60% 30.30 in 10.0 mi Calm Calm - N/A   Clear
2:15 AM 35.6 °F - 24.8 °F 65% 30.30 in 10.0 mi Calm Calm - N/A   Clear
2:35 AM 33.8 °F - 23.0 °F 65% 30.29 in 10.0 mi Calm Calm - N/A   Clear
2:55 AM 32.0 °F 28.7 °F 23.0 °F 69% 30.29 in 10.0 mi SW 3.5 mph - N/A   Clear
3:15 AM 33.8 °F - 24.8 °F 70% 30.29 in 10.0 mi Calm Calm - N/A   Clear
3:35 AM 33.8 °F - 26.6 °F 75% 30.29 in 10.0 mi Calm Calm - N/A   Clear
3:55 AM 32.0 °F - 26.6 °F 80% 30.30 in 10.0 mi Calm Calm - N/A   Clear
4:15 AM 32.0 °F - 26.6 °F 80% 30.30 in 10.0 mi Calm Calm - N/A   Clear
4:35 AM 32.0 °F - 26.6 °F 80% 30.30 in 10.0 mi Calm Calm - N/A   Clear
4:55 AM 33.8 °F - 28.4 °F 81% 30.31 in 10.0 mi Calm Calm - N/A   Clear
5:15 AM 33.8 °F - 28.4 °F 81% 30.31 in 10.0 mi Calm Calm - N/A   Clear
5:35 AM 33.8 °F - 26.6 °F 75% 30.32 in 10.0 mi Calm Calm - N/A   Clear
5:55 AM 33.8 °F - 26.6 °F 75% 30.32 in 10.0 mi Calm Calm - N/A   Clear
6:15 AM 33.8 °F - 28.4 °F 81% 30.33 in 10.0 mi Calm Calm - N/A   Clear
6:55 AM 33.8 °F - 28.4 °F 81% 30.34 in 10.0 mi Calm Calm - N/A   Clear
7:15 AM 33.8 °F - 26.6 °F 75% 30.35 in 10.0 mi Calm Calm - N/A   Clear
7:35 AM 33.8 °F - 28.4 °F 81% 30.35 in 10.0 mi Calm Calm - N/A   Clear
7:55 AM 33.8 °F - 28.4 °F 81% 30.35 in 10.0 mi Calm Calm - N/A   Clear
8:15 AM 37.4 °F - 30.2 °F 75% 30.36 in 10.0 mi Calm Calm - N/A   Clear
8:35 AM 39.2 °F 37.0 °F 30.2 °F 70% 30.37 in 10.0 mi NW 3.5 mph - N/A   Clear
8:55 AM 42.8 °F 38.6 °F 30.2 °F 61% 30.37 in 10.0 mi North 6.9 mph - N/A   Clear
9:15 AM 44.6 °F - 30.2 °F 57% 30.37 in 10.0 mi Calm Calm - N/A   Clear
9:35 AM 48.2 °F - 30.2 °F 50% 30.37 in 10.0 mi NNE 9.2 mph - N/A   Clear
9:55 AM 48.2 °F - 28.4 °F 46% 30.37 in 10.0 mi North 11.5 mph - N/A   Clear
10:15 AM 51.8 °F - 28.4 °F 41% 30.37 in 10.0 mi North 11.5 mph 17.3 mph N/A   Clear
10:35 AM 51.8 °F - 28.4 °F 41% 30.36 in 10.0 mi North 11.5 mph 18.4 mph N/A   Clear
10:55 AM 53.6 °F - 26.6 °F 35% 30.35 in 10.0 mi NNE 10.4 mph 18.4 mph N/A   Clear
11:15 AM 53.6 °F - 28.4 °F 38% 30.35 in 10.0 mi NNE 9.2 mph - N/A   Clear
11:55 AM 55.4 °F - 26.6 °F 33% 30.34 in 10.0 mi North 12.7 mph 18.4 mph N/A   Clear
12:15 PM 55.4 °F - 24.8 °F 31% 30.33 in 10.0 mi North 9.2 mph 18.4 mph N/A   Clear
12:35 PM 55.4 °F - 23.0 °F 29% 30.32 in 10.0 mi North 10.4 mph - N/A   Clear
12:55 PM 57.2 °F - 23.0 °F 27% 30.30 in 10.0 mi North 11.5 mph 16.1 mph N/A   Partly Cloudy
1:15 PM 57.2 °F - 23.0 °F 27% 30.29 in 10.0 mi North 12.7 mph - N/A   Clear
1:35 PM 57.2 °F - 23.0 °F 27% 30.28 in 10.0 mi NNE 9.2 mph - N/A   Clear
1:55 PM 59.0 °F - 21.2 °F 23% 30.27 in 10.0 mi NNE 8.1 mph - N/A   Clear
2:15 PM 60.8 °F - 21.2 °F 22% 30.26 in 10.0 mi North 6.9 mph - N/A   Clear
2:35 PM 60.8 °F - 19.4 °F 20% 30.25 in 9.0 mi NNW 11.5 mph - N/A   Clear
2:55 PM 60.8 °F - 21.2 °F 22% 30.25 in 10.0 mi NNW 9.2 mph - N/A   Clear
3:15 PM 60.8 °F - 19.4 °F 20% 30.24 in 10.0 mi NNE 6.9 mph 16.1 mph N/A   Clear
3:55 PM 60.8 °F - 19.4 °F 20% 30.23 in 10.0 mi NNW 16.1 mph - N/A   Clear
4:15 PM 60.8 °F - 19.4 °F 20% 30.23 in 10.0 mi NNW 9.2 mph 17.3 mph N/A   Clear
4:55 PM 60.8 °F - 19.4 °F 20% 30.23 in 10.0 mi North 11.5 mph - N/A   Clear
5:15 PM 60.8 °F - 19.4 °F 20% 30.23 in 10.0 mi North 10.4 mph - N/A   Clear
5:35 PM 60.8 °F - 19.4 °F 20% 30.23 in 10.0 mi North 10.4 mph - N/A   Clear
5:55 PM 59.0 °F - 19.4 °F 22% 30.24 in 10.0 mi North 9.2 mph - N/A   Clear
6:15 PM 57.2 °F - 19.4 °F 23% 30.24 in 10.0 mi North 6.9 mph - N/A   Clear
6:35 PM 53.6 °F - 19.4 °F 26% 30.25 in 10.0 mi Calm Calm - N/A   Clear
6:55 PM 53.6 °F - 19.4 °F 26% 30.26 in 10.0 mi Calm Calm - N/A   Clear
7:15 PM 51.8 °F - 19.4 °F 28% 30.26 in 10.0 mi Calm Calm - N/A   Clear
7:35 PM 48.2 °F - 21.2 °F 34% 30.26 in 10.0 mi Calm Calm - N/A   Clear
7:55 PM 46.4 °F - 21.2 °F 37% 30.27 in 10.0 mi Calm Calm - N/A   Clear
8:15 PM 46.4 °F - 21.2 °F 37% 30.27 in 10.0 mi Calm Calm - N/A   Clear
8:35 PM 44.6 °F - 21.2 °F 39% 30.27 in 10.0 mi Calm Calm - N/A   Clear
8:55 PM 42.8 °F - 23.0 °F 46% 30.27 in 10.0 mi Calm Calm - N/A   Clear
9:15 PM 42.8 °F - 21.2 °F 42% 30.28 in 10.0 mi Calm Calm - N/A   Clear
9:35 PM 42.8 °F - 23.0 °F 46% 30.28 in 10.0 mi Calm Calm - N/A   Clear
9:55 PM 37.4 °F - 24.8 °F 60% 30.28 in 10.0 mi Calm Calm - N/A   Clear
10:15 PM 37.4 °F - 23.0 °F 56% 30.29 in 10.0 mi Calm Calm - N/A   Clear
10:55 PM 35.6 °F - 23.0 °F 60% 30.29 in 10.0 mi Calm Calm - N/A   Clear
11:15 PM 33.8 °F - 23.0 °F 65% 30.29 in 10.0 mi Calm Calm - N/A   Clear
11:35 PM 32.0 °F - 23.0 °F 69% 30.28 in 10.0 mi Calm Calm - N/A   Clear
11:55 PM 32.0 °F - 23.0 °F 69% 30.28 in 10.0 mi Calm Calm - N/A   Clear